createdAt,value
2022-12-08T00:00:24.608Z,23.37
2022-12-08T00:03:13.377Z,21.60
2022-12-08T00:06:21.363Z,23.17
2022-12-08T00:09:23.550Z,22.50
2022-12-08T00:12:13.480Z,23.33
2022-12-08T00:15:02.302Z,21.93
2022-12-08T00:17:52.455Z,22.23
2022-12-08T00:20:40.957Z,22.30
2022-12-08T00:23:29.625Z,20.33
2022-12-08T00:26:18.110Z,23.73
2022-12-08T00:29:06.977Z,21.50
2022-12-08T00:31:55.565Z,21.83
2022-12-08T00:34:45.497Z,19.90
2022-12-08T00:37:33.984Z,20.30
2022-12-08T00:40:22.456Z,19.27
2022-12-08T00:43:10.927Z,16.67
2022-12-08T00:45:59.523Z,17.97
2022-12-08T00:48:48.032Z,16.57
2022-12-08T00:51:38.365Z,16.50
2022-12-08T00:54:26.831Z,15.20
2022-12-08T00:57:15.318Z,15.17
2022-12-08T01:00:04.589Z,15.40
2022-12-08T01:02:53.232Z,14.53
2022-12-08T01:05:41.690Z,13.27
2022-12-08T01:08:31.915Z,14.40
2022-12-08T01:11:20.941Z,13.63
2022-12-08T01:14:09.426Z,12.73
2022-12-08T01:16:57.937Z,13.30
2022-12-08T01:19:46.450Z,17.33
2022-12-08T01:22:35.792Z,14.20
2022-12-08T01:25:25.676Z,17.00
2022-12-08T01:28:14.205Z,16.67
2022-12-08T01:31:03.150Z,17.37
2022-12-08T01:33:51.775Z,15.17
2022-12-08T01:36:40.302Z,15.27
2022-12-08T01:39:28.734Z,15.83
2022-12-08T01:42:24.269Z,15.40
2022-12-08T01:45:15.611Z,15.47
2022-12-08T01:48:06.281Z,16.57
2022-12-08T01:50:55.328Z,15.27
2022-12-08T01:53:43.944Z,16.07
2022-12-08T01:56:35.375Z,15.90
2022-12-08T01:59:25.661Z,16.33
2022-12-08T02:02:14.214Z,16.60
2022-12-08T02:05:03.296Z,15.10
2022-12-08T02:07:52.961Z,15.53
2022-12-08T02:10:43.487Z,15.40
2022-12-08T02:13:32.723Z,13.87
2022-12-08T02:16:34.187Z,15.77
2022-12-08T02:19:37.905Z,13.30
2022-12-08T02:22:30.775Z,14.87
2022-12-08T02:25:26.044Z,13.97
2022-12-08T02:28:39.328Z,15.43
2022-12-08T02:31:36.235Z,14.67
2022-12-08T02:34:30.059Z,14.00
2022-12-08T02:37:21.016Z,14.50
2022-12-08T02:40:14.359Z,15.87
2022-12-08T02:43:07.077Z,14.63
2022-12-08T02:45:59.927Z,14.00
2022-12-08T02:48:48.939Z,13.87
2022-12-08T02:51:38.769Z,15.00
2022-12-08T02:54:27.196Z,14.30
2022-12-08T02:57:27.071Z,15.13
2022-12-08T03:00:17.646Z,15.40
2022-12-08T03:03:11.308Z,14.87
2022-12-08T03:06:06.794Z,13.83
2022-12-08T03:09:00.301Z,14.77
2022-12-08T03:11:52.240Z,14.53
2022-12-08T03:14:42.010Z,14.90
2022-12-08T03:17:32.488Z,14.17
2022-12-08T03:20:23.517Z,14.53
2022-12-08T03:23:14.393Z,14.10
2022-12-08T03:26:09.727Z,13.10
2022-12-08T03:28:58.735Z,12.63
2022-12-08T03:31:51.304Z,14.97
2022-12-08T03:34:41.515Z,13.37
2022-12-08T03:37:30.069Z,12.47
2022-12-08T03:40:21.558Z,13.80
2022-12-08T03:43:11.478Z,13.50
2022-12-08T03:46:00.015Z,14.10
2022-12-08T03:48:48.522Z,13.53
2022-12-08T03:51:37.089Z,13.60
2022-12-08T03:54:25.567Z,13.50
2022-12-08T03:57:14.245Z,11.90
2022-12-08T04:00:04.902Z,12.23
2022-12-08T04:02:53.675Z,13.53
2022-12-08T04:05:42.202Z,13.03
2022-12-08T04:08:30.679Z,13.90
2022-12-08T04:11:19.785Z,13.00
2022-12-08T04:14:08.269Z,12.07
2022-12-08T04:16:58.123Z,13.37
2022-12-08T04:19:47.922Z,12.83
2022-12-08T04:22:36.422Z,11.63
2022-12-08T04:25:25.127Z,13.80
2022-12-08T04:28:13.933Z,11.90
2022-12-08T04:31:03.474Z,13.30
2022-12-08T04:33:53.330Z,12.40
2022-12-08T04:36:41.812Z,12.43
2022-12-08T04:39:30.256Z,11.83
2022-12-08T04:42:18.657Z,11.90
2022-12-08T04:45:07.990Z,12.27
2022-12-08T04:47:56.433Z,11.30
2022-12-08T04:50:46.923Z,12.53
2022-12-08T04:53:35.429Z,11.33
2022-12-08T04:56:23.891Z,11.13
2022-12-08T04:59:12.279Z,11.57
2022-12-08T05:02:00.964Z,12.97
2022-12-08T05:04:49.571Z,10.77
2022-12-08T05:07:39.419Z,11.77
2022-12-08T05:10:27.963Z,11.93
2022-12-08T05:13:16.413Z,11.43
2022-12-08T05:16:06.285Z,12.80
2022-12-08T05:18:54.823Z,13.10
2022-12-08T05:21:44.072Z,13.37
2022-12-08T05:24:33.881Z,13.50
2022-12-08T05:27:22.326Z,11.73
2022-12-08T05:30:11.559Z,12.30
2022-12-08T05:32:59.987Z,11.60
2022-12-08T05:35:48.452Z,14.17
2022-12-08T05:38:37.204Z,12.13
2022-12-08T05:41:27.038Z,13.10
2022-12-08T05:44:15.559Z,13.67
2022-12-08T05:47:04.205Z,12.53
2022-12-08T05:49:52.698Z,12.80
2022-12-08T05:52:41.216Z,13.57
2022-12-08T05:55:29.716Z,13.07
2022-12-08T05:58:21.389Z,11.60
2022-12-08T06:01:19.973Z,14.47
2022-12-08T06:04:08.410Z,14.33
2022-12-08T06:06:56.882Z,13.07
2022-12-08T06:09:45.536Z,13.73
2022-12-08T06:12:34.030Z,15.30
2022-12-08T06:15:23.830Z,13.60
2022-12-08T06:18:12.754Z,15.90
2022-12-08T06:21:05.330Z,14.77
2022-12-08T06:23:55.141Z,14.77
2022-12-08T06:26:43.570Z,14.63
2022-12-08T06:29:32.001Z,15.33
2022-12-08T06:32:27.082Z,15.50
2022-12-08T06:35:16.007Z,15.90
2022-12-08T06:38:04.513Z,15.77
2022-12-08T06:40:55.557Z,17.57
2022-12-08T06:43:44.633Z,16.77
2022-12-08T06:46:33.170Z,16.43
2022-12-08T06:49:23.089Z,17.87
2022-12-08T06:52:11.533Z,18.03
2022-12-08T06:54:59.995Z,16.23
2022-12-08T06:57:51.163Z,16.83
2022-12-08T07:00:42.632Z,16.30
2022-12-08T07:03:31.102Z,15.10
2022-12-08T07:06:24.170Z,17.00
2022-12-08T07:09:12.610Z,20.07
2022-12-08T07:12:01.100Z,22.80
2022-12-08T07:14:49.506Z,21.70
2022-12-08T07:17:37.946Z,20.37
2022-12-08T07:20:26.429Z,20.20
2022-12-08T07:23:16.241Z,20.70
2022-12-08T07:26:07.760Z,18.10
2022-12-08T07:28:56.201Z,18.20
2022-12-08T07:31:44.689Z,18.43
2022-12-08T07:34:33.136Z,19.93
2022-12-08T07:37:21.602Z,19.17
2022-12-08T07:40:12.677Z,18.40
2022-12-08T07:43:01.158Z,20.33
2022-12-08T07:45:50.382Z,21.37
2022-12-08T07:48:38.926Z,21.90
2022-12-08T07:51:27.366Z,20.93
2022-12-08T07:54:15.879Z,20.63
2022-12-08T07:57:06.100Z,22.00
2022-12-08T07:59:54.686Z,21.60
2022-12-08T08:02:43.444Z,21.20
2022-12-08T08:05:31.956Z,21.67
2022-12-08T08:08:20.580Z,22.43
2022-12-08T08:11:18.964Z,21.33
2022-12-08T08:14:10.950Z,20.87
2022-12-08T08:16:59.618Z,21.00
2022-12-08T08:19:48.238Z,21.40
2022-12-08T08:22:36.914Z,21.17
2022-12-08T08:25:25.486Z,23.70
2022-12-08T08:28:15.136Z,22.43
2022-12-08T08:31:05.080Z,22.07
2022-12-08T08:33:53.997Z,20.90
2022-12-08T08:36:42.553Z,22.63
2022-12-08T08:39:31.777Z,24.07
2022-12-08T08:42:20.347Z,23.50
2022-12-08T08:45:09.487Z,21.03
2022-12-08T08:47:59.385Z,23.70
2022-12-08T08:50:47.845Z,22.20
2022-12-08T08:53:36.704Z,22.23
2022-12-08T08:56:25.311Z,20.73
2022-12-08T08:59:13.825Z,20.00
2022-12-08T09:02:02.385Z,21.50
2022-12-08T09:04:52.626Z,22.60
2022-12-08T09:07:41.145Z,22.80
2022-12-08T09:10:29.660Z,21.40
2022-12-08T09:13:18.185Z,22.50
2022-12-08T09:16:09.734Z,21.60
2022-12-08T09:18:58.305Z,21.57
2022-12-08T09:21:48.246Z,19.97
2022-12-08T09:24:36.733Z,21.87
2022-12-08T09:27:25.295Z,20.60
2022-12-08T09:30:14.659Z,20.83
2022-12-08T09:33:03.371Z,20.63
2022-12-08T09:35:51.852Z,20.83
2022-12-08T09:38:41.839Z,20.93
2022-12-08T09:41:37.909Z,19.97
2022-12-08T09:44:52.336Z,20.70
2022-12-08T09:47:43.159Z,19.80
2022-12-08T09:50:33.829Z,20.70
2022-12-08T09:53:24.879Z,21.63
2022-12-08T09:56:18.435Z,22.47
2022-12-08T09:59:13.158Z,20.93
2022-12-08T10:02:02.349Z,20.57
2022-12-08T10:04:51.163Z,20.30
2022-12-08T10:07:44.418Z,19.00
2022-12-08T10:10:39.680Z,18.90
2022-12-08T10:13:34.719Z,18.80
2022-12-08T10:16:30.001Z,20.17
2022-12-08T10:19:21.696Z,19.40
2022-12-08T10:22:16.977Z,19.40
2022-12-08T10:25:10.902Z,18.43
2022-12-08T10:27:59.741Z,19.17
2022-12-08T10:30:49.561Z,19.13
2022-12-08T10:33:37.986Z,18.70
2022-12-08T10:36:45.706Z,19.63
2022-12-08T10:39:37.158Z,17.47
2022-12-08T10:42:25.816Z,19.30
2022-12-08T10:45:23.997Z,18.40
2022-12-08T10:48:18.458Z,17.90
2022-12-08T10:51:26.598Z,19.57
2022-12-08T10:54:28.059Z,18.50
2022-12-08T10:57:22.095Z,16.03
2022-12-08T11:00:15.204Z,17.93
2022-12-08T11:03:05.522Z,15.70
2022-12-08T11:06:00.752Z,18.63
2022-12-08T11:08:54.560Z,17.67
2022-12-08T11:11:46.348Z,16.27
2022-12-08T11:14:47.138Z,17.03
2022-12-08T11:17:39.209Z,15.80
2022-12-08T11:20:27.716Z,17.80
2022-12-08T11:23:23.249Z,15.97
2022-12-08T11:26:19.417Z,15.70
2022-12-08T11:29:10.006Z,14.53
2022-12-08T11:32:00.955Z,14.83
2022-12-08T11:34:52.798Z,16.00
2022-12-08T11:37:42.924Z,14.97
2022-12-08T11:40:36.771Z,16.47
2022-12-08T11:43:30.627Z,15.50
2022-12-08T11:46:22.205Z,14.97
2022-12-08T11:49:11.825Z,17.53
2022-12-08T11:52:05.286Z,15.10
2022-12-08T11:54:58.437Z,15.10
2022-12-08T11:57:48.982Z,14.50
2022-12-08T12:00:37.531Z,16.63
2022-12-08T12:03:29.738Z,15.30
2022-12-08T12:06:53.261Z,15.00
2022-12-08T12:09:48.245Z,14.70
2022-12-08T12:12:50.640Z,14.53
2022-12-08T12:15:59.689Z,13.20
2022-12-08T12:18:50.924Z,13.53
2022-12-08T12:21:41.855Z,13.43
2022-12-08T12:24:35.992Z,13.60
2022-12-08T12:27:29.096Z,11.33
2022-12-08T12:30:23.512Z,12.70
2022-12-08T12:33:15.479Z,11.30
2022-12-08T12:36:06.574Z,9.63
2022-12-08T12:39:03.976Z,11.67
2022-12-08T12:41:56.130Z,9.90
2022-12-08T12:44:44.650Z,9.90
2022-12-08T12:47:54.300Z,9.87
2022-12-08T12:50:46.301Z,9.80
2022-12-08T12:53:52.110Z,9.30
2022-12-08T12:56:52.291Z,10.30
2022-12-08T12:59:53.274Z,9.87
2022-12-08T13:02:48.653Z,8.43
2022-12-08T13:05:49.204Z,9.53
2022-12-08T13:08:37.713Z,9.27
2022-12-08T13:11:26.672Z,10.23
2022-12-08T13:14:28.536Z,9.70
2022-12-08T13:17:24.171Z,10.87
2022-12-08T13:20:20.654Z,9.73
2022-12-08T13:23:26.025Z,9.60
2022-12-08T13:26:17.999Z,9.30
2022-12-08T13:29:16.039Z,9.23
2022-12-08T13:32:05.275Z,10.37
2022-12-08T13:34:56.520Z,10.00
2022-12-08T13:37:54.798Z,9.77
2022-12-08T13:40:44.464Z,9.40
2022-12-08T13:43:51.109Z,9.27
2022-12-08T13:47:17.243Z,9.10
2022-12-08T13:57:00.848Z,9.40
2022-12-08T13:59:35.188Z,10.43
2022-12-08T14:02:29.757Z,8.00
2022-12-08T14:05:29.762Z,8.40
2022-12-08T14:08:59.974Z,8.80
2022-12-08T14:11:44.363Z,9.40
2022-12-08T14:17:52.190Z,9.13
2022-12-08T14:21:12.150Z,8.23
2022-12-08T14:23:50.536Z,9.10
2022-12-08T14:26:39.230Z,8.70
2022-12-08T14:29:37.785Z,9.00
2022-12-08T14:32:29.083Z,10.43
2022-12-08T14:35:21.991Z,8.37
2022-12-08T14:38:14.551Z,7.40
2022-12-08T14:41:06.258Z,7.63
2022-12-08T14:44:02.799Z,8.23
2022-12-08T14:47:05.933Z,8.37
2022-12-08T14:49:54.713Z,7.37
2022-12-08T14:52:44.162Z,8.13
2022-12-08T14:55:35.795Z,7.40
2022-12-08T14:58:29.404Z,8.27
2022-12-08T15:01:22.458Z,7.70
2022-12-08T15:04:16.741Z,8.60
2022-12-08T15:07:08.552Z,8.73
2022-12-08T15:10:21.471Z,9.10
2022-12-08T15:13:23.037Z,8.70
2022-12-08T15:16:26.667Z,8.50
2022-12-08T15:19:24.194Z,7.60
2022-12-08T15:22:16.498Z,7.77
2022-12-08T15:25:06.425Z,8.30
2022-12-08T15:27:56.401Z,8.80
2022-12-08T15:30:44.967Z,9.17
2022-12-08T15:33:34.764Z,8.83
2022-12-08T15:36:23.433Z,9.30
2022-12-08T15:39:22.024Z,7.73
2022-12-08T15:42:13.106Z,9.40
2022-12-08T15:45:01.604Z,8.60
2022-12-08T15:47:50.115Z,8.80
2022-12-08T15:50:39.899Z,8.43
2022-12-08T15:53:28.387Z,11.87
2022-12-08T15:56:27.526Z,12.20
2022-12-08T15:59:18.650Z,12.70
2022-12-08T16:02:07.312Z,12.60
2022-12-08T16:08:30.125Z,15.77
2022-12-08T16:12:04.703Z,12.57
2022-12-08T16:17:50.170Z,17.70
2022-12-08T16:21:05.958Z,16.63
2022-12-08T16:23:48.440Z,15.23
2022-12-08T16:27:50.729Z,18.00
2022-12-08T16:29:48.146Z,16.20
2022-12-08T16:32:36.684Z,13.90
2022-12-08T16:35:25.286Z,13.77
2022-12-08T16:38:15.680Z,14.80
2022-12-08T16:41:23.120Z,14.10
2022-12-08T16:44:11.655Z,13.53
2022-12-08T16:47:00.182Z,16.40
2022-12-08T16:49:48.704Z,13.30
2022-12-08T16:52:37.269Z,13.03
2022-12-08T16:55:25.820Z,14.70
2022-12-08T16:58:15.923Z,17.43
2022-12-08T17:01:04.693Z,14.77
2022-12-08T17:04:14.761Z,21.13
2022-12-08T17:07:01.804Z,23.07
2022-12-08T17:09:50.374Z,20.80
2022-12-08T17:12:39.202Z,18.27
2022-12-08T17:15:29.382Z,17.23
2022-12-08T17:18:17.930Z,19.43
2022-12-08T17:21:10.758Z,17.37
2022-12-08T17:23:59.257Z,17.40
2022-12-08T17:26:47.830Z,17.37
2022-12-08T17:29:36.305Z,19.53
2022-12-08T17:32:26.849Z,18.90
2022-12-08T17:35:16.177Z,17.47
2022-12-08T17:38:04.693Z,18.10
2022-12-08T17:40:58.442Z,17.53
2022-12-08T17:43:47.199Z,17.53
2022-12-08T17:46:41.338Z,20.57
2022-12-08T17:49:32.900Z,16.87
2022-12-08T17:52:21.373Z,19.60
2022-12-08T17:55:11.020Z,18.60
2022-12-08T17:57:59.565Z,17.20
2022-12-08T18:00:48.243Z,17.23
2022-12-08T18:03:36.820Z,14.77
2022-12-08T18:06:30.939Z,17.07
2022-12-08T18:09:19.904Z,15.80
2022-12-08T18:12:08.868Z,17.70
2022-12-08T18:14:57.457Z,18.63
2022-12-08T18:17:46.132Z,17.20
2022-12-08T18:20:34.941Z,17.23
2022-12-08T18:23:24.727Z,13.57
2022-12-08T18:26:15.652Z,11.10
2022-12-08T18:29:04.723Z,13.00
2022-12-08T18:31:53.245Z,13.70
2022-12-08T18:34:41.722Z,17.10
2022-12-08T18:37:30.306Z,31.20
2022-12-08T18:40:20.552Z,20.90
2022-12-08T18:43:09.440Z,16.53
2022-12-08T18:46:02.579Z,25.50
2022-12-08T18:48:52.539Z,18.50
2022-12-08T18:51:40.998Z,22.80
2022-12-08T18:54:50.087Z,55.73
2022-12-08T18:57:42.414Z,20.37
2022-12-08T19:00:31.577Z,15.60
2022-12-08T19:03:21.095Z,17.17
2022-12-08T19:06:09.724Z,16.00
2022-12-08T19:08:58.527Z,19.40
2022-12-08T19:11:47.194Z,33.20
2022-12-08T19:14:37.206Z,46.17
2022-12-08T19:17:26.585Z,26.53
2022-12-08T19:20:15.535Z,21.73
2022-12-08T19:23:04.318Z,21.90
2022-12-08T19:25:52.789Z,21.20
2022-12-08T19:28:41.558Z,22.23
2022-12-08T19:31:31.475Z,20.70
2022-12-08T19:34:20.274Z,23.63
2022-12-08T19:37:12.450Z,22.77
2022-12-08T19:40:18.587Z,17.27
2022-12-08T19:43:24.795Z,16.97
2022-12-08T19:46:13.483Z,17.50
2022-12-08T19:49:03.598Z,17.63
2022-12-08T19:51:52.146Z,17.00
2022-12-08T19:54:40.709Z,17.60
2022-12-08T19:57:29.171Z,22.80
2022-12-08T20:00:19.161Z,18.33
2022-12-08T20:03:07.901Z,23.20
2022-12-08T20:05:57.828Z,17.30
2022-12-08T20:08:50.588Z,22.27
2022-12-08T20:11:39.843Z,26.77
2022-12-08T20:14:28.395Z,24.53
2022-12-08T20:17:16.936Z,20.00
2022-12-08T20:20:07.774Z,16.23
2022-12-08T20:22:57.908Z,16.03
2022-12-08T20:25:47.794Z,17.80
2022-12-08T20:28:36.980Z,18.50
2022-12-08T20:31:27.140Z,18.63
2022-12-08T20:34:16.596Z,17.90
2022-12-08T20:37:05.143Z,31.43
2022-12-08T20:39:55.118Z,16.23
2022-12-08T20:42:43.674Z,17.07
2022-12-08T20:45:32.255Z,17.13
2022-12-08T20:48:20.822Z,14.43
2022-12-08T20:51:09.767Z,15.87
2022-12-08T20:53:58.659Z,15.97
2022-12-08T20:56:49.019Z,19.57
2022-12-08T20:59:37.582Z,17.27
2022-12-08T21:02:26.134Z,17.47
2022-12-08T21:05:14.754Z,16.30
2022-12-08T21:08:03.797Z,16.30
2022-12-08T21:10:56.065Z,15.90
2022-12-08T21:13:46.878Z,19.13
2022-12-08T21:16:35.616Z,17.57
2022-12-08T21:19:24.940Z,19.10
2022-12-08T21:22:14.081Z,18.53
2022-12-08T21:25:02.699Z,18.20
2022-12-08T21:27:51.329Z,19.53
2022-12-08T21:30:42.083Z,18.73
2022-12-08T21:33:30.702Z,18.20
2022-12-08T21:36:21.759Z,15.47
2022-12-08T21:39:12.847Z,16.47
2022-12-08T21:42:22.559Z,16.53
2022-12-08T21:45:12.237Z,16.80
2022-12-08T21:48:10.275Z,16.50
2022-12-08T21:51:04.814Z,17.67
2022-12-08T21:53:53.477Z,17.73
2022-12-08T21:56:42.193Z,17.43
2022-12-08T21:59:30.944Z,19.03
2022-12-08T22:02:22.385Z,17.67
2022-12-08T22:05:13.076Z,17.97
2022-12-08T22:08:01.822Z,18.13
2022-12-08T22:10:50.595Z,15.90
2022-12-08T22:13:41.263Z,16.97
2022-12-08T22:16:29.942Z,16.50
2022-12-08T22:19:18.683Z,15.40
2022-12-08T22:22:08.736Z,16.50
2022-12-08T22:24:57.269Z,16.03
2022-12-08T22:27:45.705Z,16.63
2022-12-08T22:30:39.233Z,18.00
2022-12-08T22:33:29.760Z,16.50
2022-12-08T22:36:20.300Z,18.43
2022-12-08T22:39:10.484Z,18.03
2022-12-08T22:41:59.172Z,18.20
2022-12-08T22:44:47.682Z,19.27
2022-12-08T22:47:36.356Z,19.03
2022-12-08T22:50:24.941Z,19.43
2022-12-08T22:53:15.408Z,19.90
2022-12-08T22:56:06.444Z,18.83
2022-12-08T22:58:55.027Z,18.03
2022-12-08T23:01:43.717Z,18.87
2022-12-08T23:04:32.339Z,19.27
2022-12-08T23:07:20.875Z,17.50
2022-12-08T23:10:11.050Z,18.03
2022-12-08T23:13:03.887Z,18.47
2022-12-08T23:15:52.715Z,18.47
2022-12-08T23:18:43.065Z,17.93
2022-12-08T23:21:31.767Z,18.40
2022-12-08T23:24:20.299Z,20.23
2022-12-08T23:27:08.862Z,19.00
2022-12-08T23:29:58.760Z,18.77
2022-12-08T23:32:47.329Z,19.90
2022-12-08T23:35:35.878Z,18.70
2022-12-08T23:38:24.869Z,19.23
2022-12-08T23:41:14.889Z,18.50
2022-12-08T23:44:03.362Z,17.83
2022-12-08T23:46:53.289Z,17.10
2022-12-08T23:49:41.844Z,18.00
2022-12-08T23:52:30.419Z,19.30
2022-12-08T23:55:18.893Z,18.03
2022-12-08T23:58:07.421Z,18.47
